createdAt,value
2018-10-07T00:01:20.966Z,13.58
2018-10-07T00:03:49.953Z,17.02
2018-10-07T00:06:18.961Z,14.13
2018-10-07T00:08:47.989Z,12.93
2018-10-07T00:11:16.959Z,11.53
2018-10-07T00:13:45.893Z,13.40
2018-10-07T00:16:14.974Z,17.50
2018-10-07T00:18:43.805Z,11.57
2018-10-07T00:21:12.717Z,11.20
2018-10-07T00:23:41.682Z,17.10
2018-10-07T00:26:10.720Z,14.07
2018-10-07T00:28:39.693Z,12.80
2018-10-07T00:31:08.895Z,13.40
2018-10-07T00:33:37.905Z,8.18
2018-10-07T00:36:06.903Z,9.80
2018-10-07T00:38:35.923Z,11.80
2018-10-07T00:41:04.866Z,14.93
2018-10-07T00:43:33.822Z,9.75
2018-10-07T00:46:02.925Z,18.95
2018-10-07T00:48:31.870Z,18.37
2018-10-07T00:51:01.003Z,18.30
2018-10-07T00:53:29.978Z,17.05
2018-10-07T00:55:59.114Z,19.30
2018-10-07T00:58:28.178Z,19.33
2018-10-07T01:00:57.363Z,12.03
2018-10-07T01:03:26.294Z,11.97
2018-10-07T01:05:55.398Z,19.32
2018-10-07T01:08:24.302Z,22.65
2018-10-07T01:10:53.321Z,21.27
2018-10-07T01:13:22.082Z,17.17
2018-10-07T01:15:51.126Z,18.15
2018-10-07T01:18:20.137Z,18.75
2018-10-07T01:20:49.213Z,21.15
2018-10-07T01:23:18.253Z,27.77
2018-10-07T01:25:47.190Z,30.52
2018-10-07T01:28:16.154Z,21.42
2018-10-07T01:30:45.142Z,27.87
2018-10-07T01:33:14.199Z,22.13
2018-10-07T01:35:43.230Z,19.30
2018-10-07T01:38:12.492Z,27.55
2018-10-07T01:40:41.350Z,23.92
2018-10-07T01:43:10.302Z,26.13
2018-10-07T01:45:39.278Z,24.03
2018-10-07T01:48:08.174Z,22.47
2018-10-07T01:50:37.132Z,19.00
2018-10-07T01:53:06.114Z,25.13
2018-10-07T01:55:35.293Z,15.20
2018-10-07T01:58:04.281Z,22.65
2018-10-07T02:00:33.298Z,29.35
2018-10-07T02:03:02.242Z,13.28
2018-10-07T02:05:31.211Z,22.13
2018-10-07T02:08:00.162Z,12.30
2018-10-07T02:10:29.133Z,17.23
2018-10-07T02:12:58.174Z,13.50
2018-10-07T02:15:27.406Z,18.30
2018-10-07T02:17:56.391Z,15.60
2018-10-07T02:20:25.330Z,22.20
2018-10-07T02:22:54.353Z,11.88
2018-10-07T02:25:23.274Z,17.85
2018-10-07T02:27:52.255Z,28.05
2018-10-07T02:30:21.314Z,26.68
2018-10-07T02:32:50.290Z,12.23
2018-10-07T02:35:19.449Z,23.62
2018-10-07T02:37:48.374Z,19.70
2018-10-07T02:40:18.242Z,10.73
2018-10-07T02:42:46.944Z,23.83
2018-10-07T02:45:15.670Z,14.85
2018-10-07T02:47:44.593Z,13.75
2018-10-07T02:50:19.078Z,21.75
2018-10-07T02:52:50.145Z,22.17
2018-10-07T02:55:22.950Z,12.90
2018-10-07T02:57:53.474Z,16.62
2018-10-07T03:00:22.424Z,13.88
2018-10-07T03:02:51.993Z,22.75
2018-10-07T03:05:20.986Z,15.67
2018-10-07T03:07:50.104Z,14.40
2018-10-07T03:10:19.097Z,15.18
2018-10-07T03:12:48.060Z,17.60
2018-10-07T03:15:17.098Z,15.50
2018-10-07T03:17:46.078Z,13.43
2018-10-07T03:20:15.210Z,12.63
2018-10-07T03:22:44.221Z,10.95
2018-10-07T03:25:13.199Z,10.23
2018-10-07T03:27:42.318Z,8.95
2018-10-07T03:30:11.430Z,9.85
2018-10-07T03:32:40.446Z,9.45
2018-10-07T03:35:09.418Z,8.68
2018-10-07T03:37:38.550Z,7.72
2018-10-07T03:40:07.482Z,8.58
2018-10-07T03:42:36.467Z,7.85
2018-10-07T03:45:05.434Z,9.25
2018-10-07T03:47:34.473Z,9.88
2018-10-07T03:50:03.454Z,8.88
2018-10-07T03:52:32.489Z,7.92
2018-10-07T03:55:01.488Z,8.45
2018-10-07T03:57:30.530Z,7.53
2018-10-07T03:59:59.899Z,8.35
2018-10-07T04:02:28.929Z,8.33
2018-10-07T04:04:57.916Z,8.53
2018-10-07T04:07:27.862Z,8.67
2018-10-07T04:09:57.079Z,8.93
2018-10-07T04:12:25.819Z,7.08
2018-10-07T04:14:54.499Z,8.30
2018-10-07T04:17:23.459Z,7.65
2018-10-07T04:19:52.434Z,7.37
2018-10-07T04:22:21.458Z,7.80
2018-10-07T04:24:50.572Z,7.55
2018-10-07T04:27:19.558Z,7.17
2018-10-07T04:29:48.590Z,6.57
2018-10-07T04:32:17.476Z,7.40
2018-10-07T04:34:46.494Z,6.35
2018-10-07T04:37:15.466Z,6.90
2018-10-07T04:39:44.434Z,7.08
2018-10-07T04:42:13.322Z,7.40
2018-10-07T04:44:42.318Z,7.75
2018-10-07T04:47:11.289Z,7.27
2018-10-07T04:49:40.282Z,6.58
2018-10-07T04:52:09.291Z,5.62
2018-10-07T04:54:38.226Z,5.97
2018-10-07T04:57:07.093Z,6.17
2018-10-07T04:59:36.030Z,6.35
2018-10-07T05:02:05.097Z,7.00
2018-10-07T05:04:34.160Z,6.25
2018-10-07T05:07:03.329Z,6.95
2018-10-07T05:09:32.698Z,5.10
2018-10-07T05:12:03.563Z,6.17
2018-10-07T05:14:32.845Z,6.17
2018-10-07T05:17:02.454Z,6.03
2018-10-07T05:19:31.374Z,5.80
2018-10-07T05:22:00.239Z,7.22
2018-10-07T05:24:29.254Z,6.95
2018-10-07T05:26:58.373Z,7.45
2018-10-07T05:29:27.345Z,6.95
2018-10-07T05:31:56.369Z,7.10
2018-10-07T05:34:25.352Z,7.58
2018-10-07T05:36:54.283Z,8.00
2018-10-07T05:39:23.247Z,5.45
2018-10-07T05:41:52.285Z,6.47
2018-10-07T05:44:21.289Z,6.17
2018-10-07T05:46:50.323Z,6.10
2018-10-07T05:49:19.269Z,6.85
2018-10-07T05:51:48.242Z,6.62
2018-10-07T05:54:17.402Z,6.30
2018-10-07T05:56:46.442Z,6.85
2018-10-07T05:59:15.630Z,6.10
2018-10-07T06:01:45.464Z,6.55
2018-10-07T06:04:50.193Z,6.80
2018-10-07T06:07:19.744Z,6.20
2018-10-07T06:09:48.811Z,6.42
2018-10-07T06:12:18.006Z,7.00
2018-10-07T06:14:57.911Z,4.97
2018-10-07T06:17:26.937Z,6.67
2018-10-07T06:19:55.978Z,5.85
2018-10-07T06:22:25.180Z,5.50
2018-10-07T06:24:53.910Z,4.85
2018-10-07T06:27:23.447Z,5.40
2018-10-07T06:29:52.653Z,5.57
2018-10-07T06:32:21.662Z,5.28
2018-10-07T06:34:50.634Z,5.25
2018-10-07T06:37:19.575Z,5.20
2018-10-07T06:39:48.716Z,4.90
2018-10-07T06:42:17.809Z,5.60
2018-10-07T06:44:46.765Z,5.05
2018-10-07T06:47:15.903Z,5.03
2018-10-07T06:49:44.923Z,5.12
2018-10-07T06:52:13.930Z,4.93
2018-10-07T06:54:42.879Z,4.85
2018-10-07T06:57:11.893Z,5.62
2018-10-07T06:59:41.173Z,4.90
2018-10-07T07:02:10.109Z,5.47
2018-10-07T07:04:39.286Z,4.70
2018-10-07T07:07:09.222Z,4.83
2018-10-07T07:09:38.079Z,5.20
2018-10-07T07:12:07.155Z,4.95
2018-10-07T07:14:36.190Z,5.33
2018-10-07T07:17:05.257Z,4.83
2018-10-07T07:19:34.190Z,4.60
2018-10-07T07:22:03.179Z,6.05
2018-10-07T07:24:32.321Z,4.35
2018-10-07T07:27:01.181Z,5.12
2018-10-07T07:29:30.366Z,4.72
2018-10-07T07:31:59.406Z,4.55
2018-10-07T07:34:29.278Z,5.42
2018-10-07T07:36:58.403Z,5.35
2018-10-07T07:39:27.514Z,4.35
2018-10-07T07:41:56.889Z,4.22
2018-10-07T07:44:25.894Z,4.90
2018-10-07T07:46:55.611Z,4.80
2018-10-07T07:49:24.622Z,4.90
2018-10-07T07:51:53.314Z,4.12
2018-10-07T07:54:22.065Z,4.90
2018-10-07T07:56:51.193Z,5.17
2018-10-07T07:59:20.256Z,4.95
2018-10-07T08:01:49.211Z,4.10
2018-10-07T08:04:18.182Z,5.08
2018-10-07T08:06:47.349Z,5.27
2018-10-07T08:09:16.222Z,4.80
2018-10-07T08:11:45.225Z,4.55
2018-10-07T08:14:14.234Z,5.10
2018-10-07T08:16:43.272Z,4.72
2018-10-07T08:19:12.243Z,4.97
2018-10-07T08:21:41.235Z,4.72
2018-10-07T08:24:10.255Z,5.15
2018-10-07T08:26:39.301Z,5.05
2018-10-07T08:29:08.378Z,5.08
2018-10-07T08:31:37.509Z,4.67
2018-10-07T08:34:06.490Z,5.30
2018-10-07T08:36:35.509Z,4.10
2018-10-07T08:39:05.718Z,5.33
2018-10-07T08:41:34.718Z,4.80
2018-10-07T08:44:03.872Z,5.28
2018-10-07T08:46:32.861Z,4.95
2018-10-07T08:49:01.934Z,4.70
2018-10-07T08:51:30.946Z,4.55
2018-10-07T08:53:59.982Z,4.75
2018-10-07T08:56:29.285Z,5.03
2018-10-07T08:58:58.164Z,5.45
2018-10-07T09:01:27.209Z,4.80
2018-10-07T09:03:56.190Z,5.12
2018-10-07T09:06:25.226Z,5.80
2018-10-07T09:08:54.322Z,5.07
2018-10-07T09:11:23.442Z,4.60
2018-10-07T09:13:52.304Z,4.37
2018-10-07T09:16:21.228Z,4.65
2018-10-07T09:18:50.031Z,4.72
2018-10-07T09:21:18.766Z,5.08
2018-10-07T09:23:47.499Z,4.65
2018-10-07T09:26:16.474Z,5.17
2018-10-07T09:28:45.354Z,4.85
2018-10-07T09:31:14.292Z,5.03
2018-10-07T09:33:43.257Z,5.07
2018-10-07T09:36:12.265Z,4.65
2018-10-07T09:38:41.260Z,5.10
2018-10-07T09:41:10.082Z,5.12
2018-10-07T09:43:39.058Z,4.30
2018-10-07T09:46:08.106Z,5.00
2018-10-07T09:48:37.176Z,5.35
2018-10-07T09:51:06.270Z,4.17
2018-10-07T09:53:35.341Z,5.05
2018-10-07T09:56:04.434Z,4.53
2018-10-07T09:58:33.313Z,4.37
2018-10-07T10:01:02.279Z,5.10
2018-10-07T10:03:31.314Z,5.15
2018-10-07T10:06:00.390Z,4.35
2018-10-07T10:08:29.566Z,4.58
2018-10-07T10:10:58.579Z,4.80
2018-10-07T10:13:27.638Z,4.70
2018-10-07T10:15:56.617Z,5.08
2018-10-07T10:18:58.115Z,5.03
2018-10-07T10:21:34.830Z,4.00
2018-10-07T10:26:17.445Z,5.27
2018-10-07T10:29:30.166Z,5.10
2018-10-07T10:33:08.264Z,4.35
2018-10-07T10:36:02.387Z,5.80
2018-10-07T10:39:09.104Z,4.97
2018-10-07T10:41:45.109Z,4.83
2018-10-07T10:44:31.385Z,5.10
2018-10-07T10:47:10.402Z,4.72
2018-10-07T10:49:48.249Z,5.62
2018-10-07T10:52:22.113Z,5.75
2018-10-07T10:54:57.682Z,5.67
2018-10-07T10:57:32.157Z,5.07
2018-10-07T11:00:09.545Z,5.03
2018-10-07T11:04:52.297Z,4.37
2018-10-07T11:07:32.457Z,4.95
2018-10-07T11:10:41.768Z,5.70
2018-10-07T11:13:21.302Z,5.47
2018-10-07T11:16:03.234Z,5.20
2018-10-07T11:20:50.938Z,4.62
2018-10-07T11:24:31.663Z,5.75
2018-10-07T11:27:04.658Z,4.35
2018-10-07T11:29:39.258Z,4.80
2018-10-07T11:32:27.426Z,4.45
2018-10-07T11:35:22.501Z,4.87
2018-10-07T11:38:02.487Z,5.03
2018-10-07T11:40:42.297Z,5.25
2018-10-07T11:43:37.278Z,4.90
2018-10-07T11:46:17.134Z,4.55
2018-10-07T11:49:20.232Z,4.83
2018-10-07T11:51:56.392Z,5.03
2018-10-07T11:54:36.063Z,5.53
2018-10-07T11:57:05.231Z,5.35
2018-10-07T11:59:34.181Z,4.67
2018-10-07T12:02:03.283Z,5.30
2018-10-07T12:04:32.297Z,4.62
2018-10-07T12:07:01.377Z,4.42
2018-10-07T12:09:30.292Z,5.12
2018-10-07T12:11:59.315Z,4.72
2018-10-07T12:14:28.029Z,4.97
2018-10-07T12:16:56.782Z,4.85
2018-10-07T12:19:25.461Z,6.45
2018-10-07T12:21:54.190Z,4.55
2018-10-07T12:24:22.885Z,5.53
2018-10-07T12:26:51.733Z,4.12
2018-10-07T12:29:20.689Z,4.70
2018-10-07T12:31:49.840Z,4.75
2018-10-07T12:34:18.806Z,5.65
2018-10-07T12:36:48.025Z,4.97
2018-10-07T12:39:17.493Z,5.15
2018-10-07T12:41:46.477Z,4.83
2018-10-07T12:44:15.442Z,4.62
2018-10-07T12:46:44.603Z,4.47
2018-10-07T12:49:13.869Z,5.00
2018-10-07T12:51:43.016Z,5.17
2018-10-07T12:54:11.987Z,4.45
2018-10-07T12:56:41.135Z,5.15
2018-10-07T12:59:11.213Z,4.03
2018-10-07T13:01:40.285Z,4.50
2018-10-07T13:04:09.411Z,4.87
2018-10-07T13:06:38.506Z,4.47
2018-10-07T13:09:11.850Z,4.90
2018-10-07T13:11:41.146Z,5.47
2018-10-07T13:14:10.336Z,4.37
2018-10-07T13:16:39.869Z,5.00
2018-10-07T13:19:09.092Z,5.03
2018-10-07T13:21:38.127Z,5.28
2018-10-07T13:24:07.025Z,6.03
2018-10-07T13:26:35.928Z,4.78
2018-10-07T13:29:04.949Z,4.85
2018-10-07T13:31:33.926Z,4.97
2018-10-07T13:34:02.966Z,4.90
2018-10-07T13:36:31.949Z,4.35
2018-10-07T13:39:01.082Z,4.53
2018-10-07T13:41:30.099Z,4.60
2018-10-07T13:43:58.837Z,4.58
2018-10-07T13:46:27.555Z,4.60
2018-10-07T13:48:56.273Z,5.60
2018-10-07T13:51:24.962Z,4.97
2018-10-07T13:53:53.969Z,5.17
2018-10-07T13:56:22.842Z,5.47
2018-10-07T13:58:51.946Z,4.43
2018-10-07T14:01:21.053Z,5.00
2018-10-07T14:03:50.032Z,5.50
2018-10-07T14:06:19.054Z,4.45
2018-10-07T14:08:48.026Z,5.42
2018-10-07T14:11:16.974Z,5.00
2018-10-07T14:13:45.993Z,5.50
2018-10-07T14:16:14.989Z,5.35
2018-10-07T14:18:44.234Z,4.67
2018-10-07T14:21:13.229Z,5.57
2018-10-07T14:23:42.354Z,4.95
2018-10-07T14:26:11.310Z,5.25
2018-10-07T14:28:40.270Z,5.60
2018-10-07T14:31:09.260Z,4.75
2018-10-07T14:33:38.322Z,5.30
2018-10-07T14:36:07.352Z,4.77
2018-10-07T14:38:36.446Z,5.28
2018-10-07T14:41:05.457Z,4.25
2018-10-07T14:43:34.351Z,5.20
2018-10-07T14:46:03.286Z,5.62
2018-10-07T14:48:32.358Z,5.47
2018-10-07T14:51:01.298Z,4.95
2018-10-07T14:53:30.261Z,5.25
2018-10-07T14:55:59.396Z,5.15
2018-10-07T14:58:28.486Z,5.20
2018-10-07T15:00:57.566Z,5.63
2018-10-07T15:03:26.480Z,5.33
2018-10-07T15:05:55.521Z,5.62
2018-10-07T15:08:24.398Z,5.37
2018-10-07T15:10:53.438Z,4.97
2018-10-07T15:13:22.172Z,5.28
2018-10-07T15:15:50.889Z,5.30
2018-10-07T15:18:19.566Z,5.55
2018-10-07T15:20:48.814Z,4.53
2018-10-07T15:23:17.503Z,5.60
2018-10-07T15:25:46.548Z,4.78
2018-10-07T15:28:15.541Z,4.93
2018-10-07T15:30:44.501Z,4.55
2018-10-07T15:33:13.457Z,4.75
2018-10-07T15:35:42.595Z,5.42
2018-10-07T15:38:11.653Z,4.30
2018-10-07T15:40:40.614Z,6.30
2018-10-07T15:43:09.569Z,5.03
2018-10-07T15:45:38.453Z,4.90
2018-10-07T15:48:07.497Z,4.28
2018-10-07T15:50:36.464Z,4.62
2018-10-07T15:53:05.502Z,4.35
2018-10-07T15:55:34.481Z,4.50
2018-10-07T15:58:03.505Z,5.17
2018-10-07T16:00:32.578Z,4.80
2018-10-07T16:03:01.628Z,4.42
2018-10-07T16:05:30.593Z,4.72
2018-10-07T16:07:59.633Z,4.95
2018-10-07T16:10:28.551Z,5.13
2018-10-07T16:12:57.555Z,4.42
2018-10-07T16:15:26.418Z,4.25
2018-10-07T16:17:55.450Z,4.72
2018-10-07T16:20:24.419Z,5.08
2018-10-07T16:22:53.629Z,5.10
2018-10-07T16:25:22.761Z,6.58
2018-10-07T16:27:52.041Z,6.25
2018-10-07T16:30:21.025Z,4.97
2018-10-07T16:32:50.248Z,5.63
2018-10-07T16:35:19.127Z,6.03
2018-10-07T16:37:48.106Z,5.28
2018-10-07T16:40:17.105Z,5.30
2018-10-07T16:42:45.837Z,5.37
2018-10-07T16:45:14.643Z,4.72
2018-10-07T16:47:43.420Z,4.40
2018-10-07T16:50:12.387Z,5.12
2018-10-07T16:52:41.229Z,5.22
2018-10-07T16:55:10.216Z,6.00
2018-10-07T16:57:39.326Z,5.47
2018-10-07T17:00:08.294Z,5.40
2018-10-07T17:02:37.198Z,5.87
2018-10-07T17:05:06.234Z,5.55
2018-10-07T17:07:35.230Z,5.33
2018-10-07T17:10:04.241Z,5.77
2018-10-07T17:12:33.114Z,5.72
2018-10-07T17:15:02.068Z,5.37
2018-10-07T17:17:31.066Z,5.35
2018-10-07T17:20:00.098Z,5.92
2018-10-07T17:22:29.078Z,5.20
2018-10-07T17:24:58.202Z,6.00
2018-10-07T17:27:27.238Z,5.15
2018-10-07T17:29:56.285Z,6.17
2018-10-07T17:32:25.270Z,5.70
2018-10-07T17:34:54.309Z,5.23
2018-10-07T17:37:23.466Z,5.37
2018-10-07T17:39:52.433Z,6.70
2018-10-07T17:42:21.511Z,5.70
2018-10-07T17:44:50.463Z,5.20
2018-10-07T17:47:19.435Z,5.37
2018-10-07T17:49:48.434Z,5.80
2018-10-07T17:52:17.361Z,5.70
2018-10-07T17:54:46.446Z,5.60
2018-10-07T17:57:15.408Z,5.78
2018-10-07T17:59:44.474Z,6.63
2018-10-07T18:02:13.550Z,5.97
2018-10-07T18:04:42.677Z,5.87
2018-10-07T18:07:11.962Z,6.37
2018-10-07T18:09:41.001Z,7.00
2018-10-07T18:12:10.077Z,6.00
2018-10-07T18:14:38.797Z,6.30
2018-10-07T18:17:07.493Z,5.78
2018-10-07T18:19:36.263Z,6.22
2018-10-07T18:22:04.949Z,6.45
2018-10-07T18:24:33.686Z,6.15
2018-10-07T18:27:02.668Z,5.53
2018-10-07T18:29:31.571Z,5.00
2018-10-07T18:32:00.608Z,6.30
2018-10-07T18:34:29.657Z,5.55
2018-10-07T18:36:58.613Z,6.10
2018-10-07T18:39:27.566Z,4.75
2018-10-07T18:41:56.494Z,5.37
2018-10-07T18:44:25.507Z,5.95
2018-10-07T18:46:54.458Z,5.30
2018-10-07T18:49:23.309Z,4.77
2018-10-07T18:51:52.245Z,5.83
2018-10-07T18:54:21.120Z,5.85
2018-10-07T18:56:50.138Z,6.17
2018-10-07T18:59:19.242Z,5.30
2018-10-07T19:01:48.230Z,6.08
2018-10-07T19:04:17.451Z,5.40
2018-10-07T19:06:46.475Z,5.92
2018-10-07T19:09:15.462Z,4.78
2018-10-07T19:11:44.487Z,4.87
2018-10-07T19:14:13.467Z,6.30
2018-10-07T19:16:42.450Z,5.13
2018-10-07T19:19:11.603Z,6.28
2018-10-07T19:21:40.649Z,5.10
2018-10-07T19:24:09.696Z,5.65
2018-10-07T19:26:38.903Z,5.30
2018-10-07T19:29:07.971Z,5.28
2018-10-07T19:31:36.914Z,5.85
2018-10-07T19:34:06.045Z,6.15
2018-10-07T19:36:35.024Z,4.85
2018-10-07T19:39:04.763Z,6.45
2018-10-07T19:41:33.727Z,6.05
2018-10-07T19:44:02.698Z,6.42
2018-10-07T19:46:31.678Z,5.95
2018-10-07T19:49:00.404Z,5.35
2018-10-07T19:51:29.098Z,5.67
2018-10-07T19:53:57.931Z,5.03
2018-10-07T19:56:26.853Z,6.08
2018-10-07T19:58:55.802Z,5.20
2018-10-07T20:01:24.778Z,5.70
2018-10-07T20:03:53.825Z,5.85
2018-10-07T20:06:22.854Z,6.45
2018-10-07T20:08:51.955Z,5.72
2018-10-07T20:11:20.805Z,5.92
2018-10-07T20:13:49.814Z,5.50
2018-10-07T20:16:18.821Z,5.53
2018-10-07T20:18:47.914Z,5.47
2018-10-07T20:21:17.018Z,6.35
2018-10-07T20:23:46.054Z,6.17
2018-10-07T20:26:15.064Z,5.70
2018-10-07T20:28:44.054Z,6.03
2018-10-07T20:31:13.025Z,5.50
2018-10-07T20:33:42.001Z,5.97
2018-10-07T20:36:11.042Z,6.62
2018-10-07T20:38:40.095Z,5.55
2018-10-07T20:41:09.027Z,5.60
2018-10-07T20:43:38.193Z,6.10
2018-10-07T20:46:07.159Z,5.72
2018-10-07T20:48:36.248Z,5.90
2018-10-07T20:51:05.170Z,5.57
2018-10-07T20:53:34.421Z,5.77
2018-10-07T20:56:03.546Z,5.35
2018-10-07T20:58:32.658Z,5.95
2018-10-07T21:01:01.614Z,5.55
2018-10-07T21:03:30.717Z,5.87
2018-10-07T21:05:59.737Z,5.90
2018-10-07T21:08:28.734Z,5.47
2018-10-07T21:10:57.765Z,6.20
2018-10-07T21:13:26.479Z,5.72
2018-10-07T21:15:55.596Z,5.33
2018-10-07T21:18:24.463Z,5.42
2018-10-07T21:20:53.226Z,6.10
2018-10-07T21:23:22.353Z,5.40
2018-10-07T21:25:51.386Z,6.55
2018-10-07T21:28:20.384Z,5.43
2018-10-07T21:30:49.405Z,6.03
2018-10-07T21:33:18.355Z,5.83
2018-10-07T21:35:47.402Z,5.60
2018-10-07T21:38:16.385Z,6.10
2018-10-07T21:40:45.418Z,5.93
2018-10-07T21:43:14.409Z,6.30
2018-10-07T21:45:43.311Z,6.90
2018-10-07T21:48:12.289Z,6.67
2018-10-07T21:50:41.334Z,5.15
2018-10-07T21:53:10.213Z,4.83
2018-10-07T21:55:39.237Z,6.15
2018-10-07T21:58:08.205Z,6.35
2018-10-07T22:00:37.258Z,6.35
2018-10-07T22:03:06.453Z,4.87
2018-10-07T22:05:35.414Z,6.12
2018-10-07T22:08:04.465Z,4.70
2018-10-07T22:10:33.506Z,6.87
2018-10-07T22:13:02.454Z,6.03
2018-10-07T22:15:31.447Z,6.97
2018-10-07T22:18:00.380Z,5.20
2018-10-07T22:20:29.453Z,6.03
2018-10-07T22:22:58.490Z,6.30
2018-10-07T22:25:27.427Z,6.50
2018-10-07T22:27:56.401Z,6.40
2018-10-07T22:30:25.276Z,5.62
2018-10-07T22:32:54.298Z,5.97
2018-10-07T22:35:23.558Z,6.22
2018-10-07T22:37:52.540Z,6.12
2018-10-07T22:40:21.403Z,5.73
2018-10-07T22:42:50.435Z,6.10
2018-10-07T22:45:19.133Z,6.03
2018-10-07T22:47:48.096Z,5.87
2018-10-07T22:50:16.978Z,5.87
2018-10-07T22:52:45.703Z,5.95
2018-10-07T22:55:14.799Z,5.72
2018-10-07T22:57:43.745Z,5.97
2018-10-07T23:00:12.854Z,6.35
2018-10-07T23:02:41.746Z,6.20
2018-10-07T23:05:10.735Z,6.42
2018-10-07T23:07:39.821Z,6.20
2018-10-07T23:10:08.746Z,6.62
2018-10-07T23:12:37.594Z,6.83
2018-10-07T23:15:07.033Z,7.17
2018-10-07T23:17:35.997Z,6.55
2018-10-07T23:20:05.230Z,6.05
2018-10-07T23:22:34.118Z,5.83
2018-10-07T23:25:02.973Z,6.45
2018-10-07T23:27:31.978Z,7.00
2018-10-07T23:30:01.055Z,6.58
2018-10-07T23:32:29.998Z,5.72
2018-10-07T23:34:59.022Z,7.53
2018-10-07T23:37:28.078Z,6.55
2018-10-07T23:39:57.039Z,6.65
2018-10-07T23:42:26.017Z,5.87
2018-10-07T23:44:55.018Z,6.00
2018-10-07T23:47:24.051Z,6.20
2018-10-07T23:49:53.010Z,6.12
2018-10-07T23:52:21.938Z,6.28
2018-10-07T23:54:50.981Z,5.95
2018-10-07T23:57:19.957Z,6.93
2018-10-07T23:59:49.250Z,6.30
